Ana Sayfa
METAR-TAF:

METAR-TAF

Havaalanları :

Saltillo, Meksika

Enlem: 25-27N, Boylam: 100-59W, yükseklik: 1790 m

Güncel hava durumu gözlemi

Rapor saat 05:40 UTC de 5 saat ve 8 dakika önce yapıldı.
Sakin rüzgar
Sıcaklık 10°C
Nem 62%
Basınç 1023 hPa
Görüş mesafesi: 16.1 km
Açık gökyüzü

METAR: MMIO 290540Z 00000KT 10SM SKC 10/03 A3021

Saat: 04:48 (10:48 UTC)

Tahmin

Rapor saat 03:40 UTC de 7 saat ve 8 dakika önce yapıldı.
Ayın 29'si saat 06 UTC'den ayın 30'si saat 06 UTC'ye kadar geçerli Tahmin
Rüzgar kuzeydan kt
Görüş mesafesi: 10 km
Açık gökyüzü
Ayın 29'si saat 1800 UTC'den
Rüzgar güneydoğudan 10 kt
Görüş mesafesi: 10 km
25000 ft yükseklikte parçalı bulutlu
Ayın 30'si saat 0500 UTC'den
Rüzgar kuzeydan kt
Görüş mesafesi: 10 km
Açık gökyüzü

TAF: MMIO 290340Z 2906/3006 00000KT P6SM SKC FM291800 14010KT P6SM SCT250 FM300500 00000KT P6SM SKC

4.000'den fazla havaalanı için hava durumu gözlemleri ve tahminleri (METAR ve TAF raporları).

Kullanılabilir istasyonlar harita üzerinde sarı ve kırmızı noktalarla gösterilir.

İstasyonun adını görmek için fareyi noktanın üzerinde gezdirin.

Sonrasında hava gözlem ve tahminlerini görmek için tıklayın.

Haritayı değiştirmek için: yaklaştırmak için siyah artı işaretli yeşil düğmeye ve uzaklaştırmak için de eksi işaretli düğmeye hızla tıklayın; bitişik haritalar için yeşil okları kullanın.


METAR-TAF: